createdAt,value
2018-07-10T00:02:42.620Z,19.17
2018-07-10T00:07:38.481Z,19.29
2018-07-10T00:10:41.338Z,19.16
2018-07-10T00:13:14.486Z,19.10
2018-07-10T00:15:47.133Z,19.20
2018-07-10T00:18:19.993Z,19.21
2018-07-10T00:20:51.605Z,19.02
2018-07-10T00:23:25.536Z,18.92
2018-07-10T00:25:58.333Z,18.88
2018-07-10T00:28:30.046Z,19.05
2018-07-10T00:31:01.877Z,19.22
2018-07-10T00:33:33.299Z,19.28
2018-07-10T00:36:06.102Z,19.40
2018-07-10T00:38:53.603Z,19.47
2018-07-10T00:41:33.630Z,19.48
2018-07-10T00:44:07.675Z,19.42
2018-07-10T00:46:41.498Z,19.30
2018-07-10T00:49:13.419Z,19.23
2018-07-10T00:51:45.947Z,19.13
2018-07-10T00:54:18.546Z,19.29
2018-07-10T00:56:50.081Z,19.33
2018-07-10T00:59:23.741Z,19.00
2018-07-10T01:01:57.902Z,18.72
2018-07-10T01:04:30.173Z,18.59
2018-07-10T01:07:01.140Z,18.51
2018-07-10T01:09:34.702Z,18.40
2018-07-10T01:12:06.200Z,18.39
2018-07-10T01:14:38.942Z,18.40
2018-07-10T01:17:10.434Z,18.50
2018-07-10T01:19:42.107Z,18.51
2018-07-10T01:22:14.256Z,18.29
2018-07-10T01:24:46.753Z,18.10
2018-07-10T01:27:19.384Z,17.98
2018-07-10T01:29:52.245Z,18.01
2018-07-10T01:32:23.808Z,18.08
2018-07-10T01:34:58.009Z,18.14
2018-07-10T01:37:29.450Z,18.20
2018-07-10T01:40:04.457Z,18.19
2018-07-10T01:42:37.469Z,18.13
2018-07-10T01:45:10.126Z,18.01
2018-07-10T01:47:45.834Z,17.87
2018-07-10T01:50:20.090Z,17.90
2018-07-10T01:52:52.777Z,17.91
2018-07-10T01:55:24.262Z,18.06
2018-07-10T01:57:58.633Z,18.27
2018-07-10T02:00:44.004Z,18.17
2018-07-10T02:03:16.387Z,18.17
2018-07-10T02:05:47.952Z,18.09
2018-07-10T02:08:21.653Z,18.06
2018-07-10T02:10:53.174Z,18.12
2018-07-10T02:13:26.771Z,18.06
2018-07-10T02:15:58.475Z,18.03
2018-07-10T02:18:30.854Z,17.98
2018-07-10T02:21:07.729Z,17.99
2018-07-10T02:23:44.588Z,18.04
2018-07-10T02:26:23.134Z,18.07
2018-07-10T02:28:56.569Z,18.06
2018-07-10T02:31:28.577Z,18.02
2018-07-10T02:34:01.572Z,18.05
2018-07-10T02:36:34.226Z,18.29
2018-07-10T02:39:07.063Z,18.35
2018-07-10T02:41:39.828Z,18.24
2018-07-10T02:44:11.281Z,18.16
2018-07-10T02:46:43.954Z,18.28
2018-07-10T02:49:22.729Z,18.48
2018-07-10T02:52:04.809Z,18.54
2018-07-10T02:54:42.450Z,18.22
2018-07-10T02:57:16.417Z,17.74
2018-07-10T02:59:48.723Z,17.26
2018-07-10T03:02:26.113Z,16.88
2018-07-10T03:05:03.563Z,16.81
2018-07-10T03:07:37.826Z,16.90
2018-07-10T03:10:10.703Z,16.93
2018-07-10T03:12:43.927Z,16.91
2018-07-10T03:15:17.943Z,16.98
2018-07-10T03:17:51.617Z,17.14
2018-07-10T03:20:23.377Z,17.33
2018-07-10T03:22:54.402Z,17.57
2018-07-10T03:25:27.749Z,17.76
2018-07-10T03:27:59.260Z,17.82
2018-07-10T03:30:31.981Z,17.89
2018-07-10T03:33:03.665Z,17.89
2018-07-10T03:35:35.379Z,17.94
2018-07-10T03:38:08.294Z,18.03
2018-07-10T03:40:40.419Z,17.85
2018-07-10T03:43:13.166Z,17.71
2018-07-10T03:45:46.207Z,17.60
2018-07-10T03:48:19.673Z,17.56
2018-07-10T03:50:53.824Z,17.43
2018-07-10T03:53:27.606Z,17.37
2018-07-10T03:55:59.493Z,17.18
2018-07-10T03:58:32.613Z,17.13
2018-07-10T04:01:03.655Z,17.33
2018-07-10T04:03:36.299Z,17.50
2018-07-10T04:06:09.550Z,17.71
2018-07-10T04:08:41.361Z,18.01
2018-07-10T04:11:15.051Z,18.35
2018-07-10T04:13:46.826Z,18.61
2018-07-10T04:16:19.133Z,18.88
2018-07-10T04:18:52.164Z,19.19
2018-07-10T04:21:28.790Z,19.75
2018-07-10T04:24:18.389Z,19.75
2018-07-10T04:27:33.085Z,19.99
2018-07-10T04:30:20.305Z,20.23
2018-07-10T04:32:51.794Z,20.49
2018-07-10T04:35:30.064Z,20.54
2018-07-10T04:38:02.129Z,20.72
2018-07-10T04:40:37.596Z,21.01
2018-07-10T04:43:18.498Z,21.25
2018-07-10T04:45:53.156Z,21.39
2018-07-10T04:49:06.725Z,21.47
2018-07-10T04:51:49.776Z,21.34
2018-07-10T04:54:36.378Z,21.28
2018-07-10T04:57:21.914Z,21.25
2018-07-10T04:59:55.161Z,21.40
2018-07-10T05:02:27.992Z,21.79
2018-07-10T05:04:59.891Z,22.09
2018-07-10T05:07:33.758Z,22.27
2018-07-10T05:10:06.547Z,22.46
2018-07-10T05:12:40.282Z,22.45
2018-07-10T05:15:14.816Z,22.40
2018-07-10T05:17:51.976Z,22.41
2018-07-10T05:20:26.925Z,22.43
2018-07-10T05:22:59.252Z,22.88
2018-07-10T05:25:31.812Z,23.31
2018-07-10T05:28:04.867Z,23.71
2018-07-10T05:30:39.277Z,24.03
2018-07-10T05:33:13.637Z,24.28
2018-07-10T05:35:46.153Z,24.71
2018-07-10T05:38:26.106Z,25.30
2018-07-10T05:41:00.426Z,25.89
2018-07-10T05:43:33.650Z,26.17
2018-07-10T05:46:06.487Z,26.21
2018-07-10T05:48:40.470Z,25.07
2018-07-10T05:51:13.642Z,24.35
2018-07-10T05:53:46.133Z,24.23
2018-07-10T05:56:17.633Z,24.21
2018-07-10T05:58:49.175Z,23.95
2018-07-10T06:01:21.902Z,23.66
2018-07-10T06:03:54.686Z,23.35
2018-07-10T06:06:28.665Z,22.67
2018-07-10T06:09:01.103Z,22.32
2018-07-10T06:11:33.975Z,22.36
2018-07-10T06:14:06.636Z,22.41
2018-07-10T06:16:42.485Z,22.61
2018-07-10T06:19:14.141Z,23.03
2018-07-10T06:21:50.845Z,23.42
2018-07-10T06:24:28.819Z,23.61
2018-07-10T06:27:04.278Z,23.80
2018-07-10T06:29:49.667Z,24.24
2018-07-10T06:32:24.297Z,24.88
2018-07-10T06:35:14.098Z,25.49
2018-07-10T06:37:48.010Z,25.67
2018-07-10T06:40:23.311Z,25.92
2018-07-10T06:43:08.938Z,26.32
2018-07-10T06:45:40.477Z,26.97
2018-07-10T06:48:15.602Z,26.90
2018-07-10T06:50:47.015Z,26.85
2018-07-10T06:53:24.259Z,26.45
2018-07-10T06:56:00.278Z,26.26
2018-07-10T06:58:35.340Z,26.50
2018-07-10T07:01:07.584Z,26.65
2018-07-10T07:03:43.019Z,27.24
2018-07-10T07:06:14.609Z,27.54
2018-07-10T07:08:47.241Z,27.26
2018-07-10T07:11:20.072Z,26.79
2018-07-10T07:13:52.512Z,26.35
2018-07-10T07:16:24.699Z,26.17
2018-07-10T07:18:56.252Z,25.80
2018-07-10T07:21:30.349Z,25.68
2018-07-10T07:24:03.299Z,26.29
2018-07-10T07:26:35.431Z,26.77
2018-07-10T07:29:06.871Z,27.09
2018-07-10T07:31:39.567Z,27.32
2018-07-10T07:34:11.170Z,27.18
2018-07-10T07:36:42.557Z,27.34
2018-07-10T07:39:15.003Z,27.98
2018-07-10T07:41:46.858Z,28.31
2018-07-10T07:44:19.536Z,28.53
2018-07-10T07:46:52.203Z,28.62
2018-07-10T07:49:24.876Z,28.91
2018-07-10T07:51:58.026Z,29.20
2018-07-10T07:54:30.271Z,29.23
2018-07-10T07:57:03.496Z,29.42
2018-07-10T07:59:35.246Z,30.46
2018-07-10T08:02:09.450Z,30.04
2018-07-10T08:04:41.127Z,30.55
2018-07-10T08:07:13.941Z,30.23
2018-07-10T08:09:46.883Z,31.31
2018-07-10T08:12:20.183Z,30.50
2018-07-10T08:14:55.084Z,30.90
2018-07-10T08:17:28.282Z,30.95
2018-07-10T08:20:01.089Z,30.99
2018-07-10T08:22:34.106Z,30.81
2018-07-10T08:25:07.462Z,30.69
2018-07-10T08:27:39.686Z,30.10
2018-07-10T08:30:12.447Z,30.11
2018-07-10T08:32:45.141Z,30.38
2018-07-10T08:35:20.466Z,30.26
2018-07-10T08:37:54.055Z,29.73
2018-07-10T08:40:26.789Z,30.72
2018-07-10T08:42:59.337Z,30.20
2018-07-10T08:45:30.763Z,29.00
2018-07-10T08:48:04.512Z,30.15
2018-07-10T08:50:37.368Z,31.15
2018-07-10T08:53:09.968Z,30.53
2018-07-10T08:55:42.814Z,31.38
2018-07-10T08:58:14.424Z,31.36
2018-07-10T09:00:48.413Z,29.80
2018-07-10T09:03:21.190Z,29.79
2018-07-10T09:05:54.026Z,30.12
2018-07-10T09:08:25.586Z,30.39
2018-07-10T09:10:58.588Z,30.76
2018-07-10T09:13:31.338Z,31.55
2018-07-10T09:16:04.185Z,32.13
2018-07-10T09:18:36.294Z,31.80
2018-07-10T09:21:08.000Z,31.07
2018-07-10T09:23:41.625Z,32.09
2018-07-10T09:26:14.695Z,30.19
2018-07-10T09:28:47.336Z,30.87
2018-07-10T09:31:19.057Z,31.84
2018-07-10T09:33:51.957Z,31.29
2018-07-10T09:36:24.500Z,30.56
2018-07-10T09:38:56.390Z,31.00
2018-07-10T09:41:30.538Z,31.46
2018-07-10T09:44:03.566Z,31.48
2018-07-10T09:46:36.642Z,31.23
2018-07-10T09:49:08.154Z,31.37
2018-07-10T09:51:42.337Z,31.45
2018-07-10T09:54:15.090Z,31.25
2018-07-10T09:56:48.905Z,31.76
2018-07-10T09:59:21.680Z,31.74
2018-07-10T10:02:00.265Z,32.46
2018-07-10T10:04:33.440Z,32.82
2018-07-10T10:07:05.038Z,34.09
2018-07-10T10:09:38.965Z,34.55
2018-07-10T10:12:11.470Z,33.55
2018-07-10T10:14:45.255Z,32.81
2018-07-10T10:17:18.587Z,33.10
2018-07-10T10:19:52.634Z,33.96
2018-07-10T10:22:24.689Z,34.46
2018-07-10T10:24:57.636Z,34.55
2018-07-10T10:27:31.231Z,34.42
2018-07-10T10:30:04.848Z,34.57
2018-07-10T10:32:37.675Z,35.37
2018-07-10T10:35:10.309Z,35.45
2018-07-10T10:37:42.927Z,35.47
2018-07-10T10:40:18.299Z,34.78
2018-07-10T10:42:51.277Z,33.80
2018-07-10T10:45:24.317Z,33.14
2018-07-10T10:51:24.057Z,33.33
2018-07-10T10:53:55.939Z,32.89
2018-07-10T10:56:30.137Z,33.39
2018-07-10T10:59:03.744Z,33.56
2018-07-10T11:01:36.621Z,33.39
2018-07-10T11:04:07.700Z,33.53
2018-07-10T11:06:41.071Z,34.06
2018-07-10T11:09:14.689Z,33.34
2018-07-10T11:11:47.609Z,33.47
2018-07-10T11:14:19.101Z,33.15
2018-07-10T11:16:52.421Z,32.88
2018-07-10T11:19:41.360Z,33.18
2018-07-10T11:22:18.843Z,33.82
2018-07-10T11:25:13.924Z,34.50
2018-07-10T11:28:08.475Z,34.00
2018-07-10T11:30:41.216Z,33.48
2018-07-10T11:33:13.011Z,33.23
2018-07-10T11:35:46.214Z,33.35
2018-07-10T11:38:17.720Z,32.92
2018-07-10T11:40:51.997Z,33.88
2018-07-10T11:43:23.883Z,34.28
2018-07-10T11:45:56.410Z,35.10
2018-07-10T11:48:29.817Z,34.47
2018-07-10T11:51:03.087Z,33.36
2018-07-10T11:53:34.988Z,32.55
2018-07-10T11:56:23.283Z,32.49
2018-07-10T11:58:59.041Z,33.15
2018-07-10T12:01:33.656Z,33.96
2018-07-10T12:04:05.985Z,34.21
2018-07-10T12:06:52.205Z,34.19
2018-07-10T12:09:23.664Z,34.50
2018-07-10T12:11:57.625Z,33.97
2018-07-10T12:14:29.785Z,32.46
2018-07-10T12:17:01.674Z,32.46
2018-07-10T12:19:34.406Z,32.92
2018-07-10T12:22:10.304Z,32.54
2018-07-10T12:24:49.006Z,32.41
2018-07-10T12:27:25.583Z,32.34
2018-07-10T12:30:30.409Z,32.43
2018-07-10T12:36:06.837Z,33.10
2018-07-10T12:38:38.285Z,33.57
2018-07-10T12:41:11.537Z,33.13
2018-07-10T12:43:43.390Z,33.35
2018-07-10T12:46:14.567Z,33.69
2018-07-10T12:48:47.439Z,34.45
2018-07-10T12:51:19.724Z,33.90
2018-07-10T12:53:51.988Z,34.11
2018-07-10T12:56:23.588Z,33.86
2018-07-10T12:58:58.240Z,33.23
2018-07-10T13:01:30.282Z,33.58
2018-07-10T13:04:02.861Z,34.22
2018-07-10T13:06:34.465Z,34.33
2018-07-10T13:09:10.567Z,32.96
2018-07-10T13:11:42.689Z,31.56
2018-07-10T13:14:14.449Z,32.02
2018-07-10T13:16:46.378Z,32.82
2018-07-10T13:19:19.442Z,33.37
2018-07-10T13:21:54.199Z,33.64
2018-07-10T13:24:25.909Z,33.20
2018-07-10T13:26:58.257Z,33.04
2018-07-10T13:29:30.082Z,33.37
2018-07-10T13:32:02.184Z,33.68
2018-07-10T13:34:33.770Z,34.07
2018-07-10T13:37:06.111Z,33.37
2018-07-10T13:39:37.789Z,32.14
2018-07-10T13:42:08.911Z,32.57
2018-07-10T13:44:40.369Z,33.11
2018-07-10T13:47:13.628Z,32.92
2018-07-10T13:50:39.000Z,32.94
2018-07-10T14:00:31.081Z,31.47
2018-07-10T14:03:02.452Z,31.27
2018-07-10T14:05:34.083Z,31.07
2018-07-10T14:08:05.451Z,31.51
2018-07-10T14:10:37.126Z,31.58
2018-07-10T14:13:08.737Z,31.31
2018-07-10T14:15:40.412Z,31.33
2018-07-10T14:18:12.200Z,30.73
2018-07-10T14:20:54.652Z,30.43
2018-07-10T14:23:26.600Z,30.93
2018-07-10T14:25:58.761Z,31.29
2018-07-10T14:28:30.619Z,31.23
2018-07-10T14:31:02.771Z,30.65
2018-07-10T19:54:27.956Z,24.09
2018-07-10T19:57:00.161Z,23.96
2018-07-10T19:59:31.863Z,24.09
2018-07-10T20:02:04.658Z,23.99
2018-07-10T20:05:12.822Z,24.06
2018-07-10T20:07:58.300Z,23.87
2018-07-10T20:10:39.753Z,24.06
2018-07-10T20:13:29.117Z,24.15
2018-07-10T20:16:10.204Z,24.21
2018-07-10T20:18:57.665Z,24.12
2018-07-10T20:21:44.754Z,24.12
2018-07-10T20:24:20.045Z,24.07
2018-07-10T20:27:36.170Z,24.11
2018-07-10T20:30:52.680Z,23.86
2018-07-10T20:35:36.514Z,23.73
2018-07-10T20:38:08.253Z,23.58
2018-07-10T20:40:42.832Z,23.58
2018-07-10T20:43:16.210Z,23.59
2018-07-10T20:45:52.772Z,23.63
2018-07-10T20:48:44.249Z,23.59
2018-07-10T20:51:16.382Z,23.63
2018-07-10T20:54:14.894Z,23.72
2018-07-10T20:57:13.755Z,23.68
2018-07-10T20:59:48.708Z,23.64
2018-07-10T21:02:35.973Z,23.68
2018-07-10T21:05:14.840Z,23.59
2018-07-10T21:08:00.043Z,23.60
2018-07-10T21:10:50.761Z,23.58
2018-07-10T21:18:03.074Z,23.55
2018-07-10T21:23:28.253Z,23.47
2018-07-10T21:26:06.596Z,23.41
2018-07-10T21:29:01.414Z,23.41
2018-07-10T21:31:47.488Z,23.31
2018-07-10T21:34:54.280Z,23.29
2018-07-10T21:38:06.412Z,23.30
2018-07-10T21:41:01.124Z,23.12
2018-07-10T21:43:52.189Z,22.95
2018-07-10T21:46:40.837Z,22.76
2018-07-10T21:49:30.302Z,22.70
2018-07-10T21:52:01.782Z,22.74
2018-07-10T21:54:33.290Z,22.73
2018-07-10T21:57:05.012Z,22.63
2018-07-10T21:59:40.871Z,22.53
2018-07-10T22:02:12.816Z,22.53
2018-07-10T22:04:45.261Z,22.49
2018-07-10T22:07:19.950Z,22.42
2018-07-10T22:09:53.360Z,22.50
2018-07-10T22:15:55.705Z,22.35
2018-07-10T22:18:27.344Z,22.27
2018-07-10T22:20:59.178Z,22.31
2018-07-10T22:23:35.673Z,22.31
2018-07-10T22:26:28.240Z,22.44
2018-07-10T22:29:30.501Z,22.41
2018-07-10T22:32:07.170Z,22.23
2018-07-10T22:34:45.130Z,22.18
2018-07-10T22:37:19.533Z,22.27
2018-07-10T22:39:51.204Z,22.26
2018-07-10T22:42:22.802Z,22.26
2018-07-10T22:45:15.299Z,22.24
2018-07-10T22:47:47.237Z,22.22
2018-07-10T22:50:24.398Z,22.14
2018-07-10T22:53:01.722Z,22.08
2018-07-10T22:55:33.632Z,22.08
2018-07-10T22:58:10.921Z,22.17
2018-07-10T23:00:42.053Z,22.08
2018-07-10T23:03:26.803Z,22.01
2018-07-10T23:05:58.030Z,22.20
2018-07-10T23:08:34.787Z,22.10
2018-07-10T23:11:07.111Z,22.00
2018-07-10T23:13:42.528Z,21.91
2018-07-10T23:16:14.379Z,21.87
2018-07-10T23:18:47.175Z,21.83
2018-07-10T23:21:19.641Z,21.75
2018-07-10T23:23:50.950Z,21.83
2018-07-10T23:26:22.410Z,21.99
2018-07-10T23:28:55.043Z,21.99
2018-07-10T23:31:31.188Z,21.93
2018-07-10T23:34:19.414Z,21.89
2018-07-10T23:36:57.138Z,21.78
2018-07-10T23:40:06.035Z,21.65
2018-07-10T23:42:37.179Z,21.61
2018-07-10T23:45:19.326Z,21.43
2018-07-10T23:47:55.167Z,21.44
2018-07-10T23:50:31.447Z,21.31
2018-07-10T23:53:29.886Z,21.24
2018-07-10T23:56:00.913Z,21.28
2018-07-10T23:58:32.561Z,21.39
